sensor_id;sensor_type;location;lat;lon;timestamp;P1;durP1;ratioP1;P2;durP2;ratioP2
47367;SDS011;34646;47.964;7.982;2022-11-15T00:03:50;6.23;;;4.07;;
47367;SDS011;34646;47.964;7.982;2022-11-15T00:10:10;6.45;;;4.70;;
47367;SDS011;34646;47.964;7.982;2022-11-15T00:16:29;5.80;;;4.38;;
47367;SDS011;34646;47.964;7.982;2022-11-15T00:22:48;5.70;;;4.18;;
47367;SDS011;34646;47.964;7.982;2022-11-15T00:29:07;4.95;;;3.95;;
47367;SDS011;34646;47.964;7.982;2022-11-15T00:35:26;5.40;;;4.10;;
47367;SDS011;34646;47.964;7.982;2022-11-15T00:41:45;4.95;;;4.25;;
47367;SDS011;34646;47.964;7.982;2022-11-15T00:48:04;8.00;;;4.05;;
47367;SDS011;34646;47.964;7.982;2022-11-15T00:54:24;6.03;;;4.47;;
47367;SDS011;34646;47.964;7.982;2022-11-15T01:00:43;5.20;;;4.13;;
47367;SDS011;34646;47.964;7.982;2022-11-15T01:07:02;7.15;;;4.18;;
47367;SDS011;34646;47.964;7.982;2022-11-15T01:13:21;4.85;;;3.70;;
47367;SDS011;34646;47.964;7.982;2022-11-15T01:19:40;4.97;;;4.10;;
47367;SDS011;34646;47.964;7.982;2022-11-15T01:26:00;5.43;;;3.78;;
47367;SDS011;34646;47.964;7.982;2022-11-15T01:32:21;5.47;;;3.85;;
47367;SDS011;34646;47.964;7.982;2022-11-15T01:38:40;4.55;;;3.58;;
47367;SDS011;34646;47.964;7.982;2022-11-15T01:44:59;4.53;;;3.85;;
47367;SDS011;34646;47.964;7.982;2022-11-15T01:51:19;4.07;;;3.25;;
47367;SDS011;34646;47.964;7.982;2022-11-15T01:57:40;4.47;;;3.85;;
47367;SDS011;34646;47.964;7.982;2022-11-15T02:04:12;4.72;;;3.40;;
47367;SDS011;34646;47.964;7.982;2022-11-15T02:10:34;4.32;;;3.78;;
47367;SDS011;34646;47.964;7.982;2022-11-15T02:43:09;4.68;;;3.38;;
47367;SDS011;34646;47.964;7.982;2022-11-15T02:49:49;4.38;;;3.50;;
47367;SDS011;34646;47.964;7.982;2022-11-15T02:56:11;5.05;;;3.67;;
47367;SDS011;34646;47.964;7.982;2022-11-15T03:15:28;4.03;;;3.42;;
47367;SDS011;34646;47.964;7.982;2022-11-15T03:21:51;6.73;;;3.40;;
47367;SDS011;34646;47.964;7.982;2022-11-15T03:28:16;3.90;;;3.13;;
47367;SDS011;34646;47.964;7.982;2022-11-15T03:34:54;4.35;;;2.95;;
47367;SDS011;34646;47.964;7.982;2022-11-15T03:41:35;3.40;;;2.80;;
47367;SDS011;34646;47.964;7.982;2022-11-15T03:48:05;3.70;;;3.05;;
47367;SDS011;34646;47.964;7.982;2022-11-15T03:54:26;2.92;;;2.63;;
47367;SDS011;34646;47.964;7.982;2022-11-15T04:00:45;4.05;;;3.20;;
47367;SDS011;34646;47.964;7.982;2022-11-15T04:07:04;4.05;;;3.25;;
47367;SDS011;34646;47.964;7.982;2022-11-15T04:13:24;4.35;;;2.85;;
47367;SDS011;34646;47.964;7.982;2022-11-15T04:19:43;2.90;;;2.60;;
47367;SDS011;34646;47.964;7.982;2022-11-15T04:26:21;3.35;;;3.05;;
47367;SDS011;34646;47.964;7.982;2022-11-15T04:32:42;5.43;;;3.22;;
47367;SDS011;34646;47.964;7.982;2022-11-15T04:39:01;3.83;;;2.97;;
47367;SDS011;34646;47.964;7.982;2022-11-15T04:45:21;3.25;;;2.60;;
47367;SDS011;34646;47.964;7.982;2022-11-15T04:51:40;6.38;;;3.08;;
47367;SDS011;34646;47.964;7.982;2022-11-15T04:58:00;27.15;;;3.40;;
47367;SDS011;34646;47.964;7.982;2022-11-15T05:04:20;5.97;;;2.90;;
47367;SDS011;34646;47.964;7.982;2022-11-15T05:10:39;7.45;;;3.13;;
47367;SDS011;34646;47.964;7.982;2022-11-15T05:16:59;5.88;;;3.10;;
47367;SDS011;34646;47.964;7.982;2022-11-15T05:23:19;7.30;;;2.83;;
47367;SDS011;34646;47.964;7.982;2022-11-15T05:29:38;4.45;;;2.72;;
47367;SDS011;34646;47.964;7.982;2022-11-15T05:36:12;3.88;;;3.05;;
47367;SDS011;34646;47.964;7.982;2022-11-15T05:42:32;3.55;;;2.72;;
47367;SDS011;34646;47.964;7.982;2022-11-15T05:48:51;11.77;;;7.28;;
47367;SDS011;34646;47.964;7.982;2022-11-15T05:55:13;8.73;;;5.80;;
47367;SDS011;34646;47.964;7.982;2022-11-15T06:01:33;9.57;;;5.05;;
47367;SDS011;34646;47.964;7.982;2022-11-15T06:07:52;7.68;;;5.13;;
47367;SDS011;34646;47.964;7.982;2022-11-15T06:14:15;7.25;;;4.93;;
47367;SDS011;34646;47.964;7.982;2022-11-15T06:20:34;10.25;;;4.63;;
47367;SDS011;34646;47.964;7.982;2022-11-15T06:26:53;8.60;;;4.65;;
47367;SDS011;34646;47.964;7.982;2022-11-15T06:33:13;5.32;;;4.60;;
47367;SDS011;34646;47.964;7.982;2022-11-15T06:39:32;5.50;;;3.78;;
47367;SDS011;34646;47.964;7.982;2022-11-15T06:45:51;5.93;;;3.97;;
47367;SDS011;34646;47.964;7.982;2022-11-15T06:52:11;6.63;;;4.10;;
47367;SDS011;34646;47.964;7.982;2022-11-15T06:58:30;6.90;;;4.10;;
47367;SDS011;34646;47.964;7.982;2022-11-15T07:04:50;6.65;;;3.63;;
47367;SDS011;34646;47.964;7.982;2022-11-15T07:11:09;6.97;;;3.42;;
47367;SDS011;34646;47.964;7.982;2022-11-15T07:17:28;7.18;;;3.55;;
47367;SDS011;34646;47.964;7.982;2022-11-15T07:23:48;7.22;;;3.60;;
47367;SDS011;34646;47.964;7.982;2022-11-15T07:30:07;8.20;;;3.17;;
47367;SDS011;34646;47.964;7.982;2022-11-15T07:36:27;5.25;;;3.38;;
47367;SDS011;34646;47.964;7.982;2022-11-15T07:42:46;5.15;;;3.25;;
47367;SDS011;34646;47.964;7.982;2022-11-15T07:49:11;5.85;;;3.55;;
47367;SDS011;34646;47.964;7.982;2022-11-15T07:55:30;8.55;;;3.70;;
47367;SDS011;34646;47.964;7.982;2022-11-15T08:01:49;6.43;;;3.72;;
47367;SDS011;34646;47.964;7.982;2022-11-15T08:08:09;5.25;;;3.40;;
47367;SDS011;34646;47.964;7.982;2022-11-15T08:14:29;4.93;;;3.27;;
47367;SDS011;34646;47.964;7.982;2022-11-15T08:20:48;5.57;;;3.42;;
47367;SDS011;34646;47.964;7.982;2022-11-15T08:27:08;4.53;;;3.10;;
47367;SDS011;34646;47.964;7.982;2022-11-15T08:33:36;5.05;;;3.50;;
47367;SDS011;34646;47.964;7.982;2022-11-15T08:39:55;4.75;;;3.38;;
47367;SDS011;34646;47.964;7.982;2022-11-15T08:46:14;5.28;;;3.15;;
47367;SDS011;34646;47.964;7.982;2022-11-15T08:52:33;6.80;;;3.47;;
47367;SDS011;34646;47.964;7.982;2022-11-15T08:58:52;5.20;;;3.10;;
47367;SDS011;34646;47.964;7.982;2022-11-15T09:05:11;4.15;;;2.75;;
47367;SDS011;34646;47.964;7.982;2022-11-15T09:11:30;5.70;;;3.05;;
47367;SDS011;34646;47.964;7.982;2022-11-15T09:17:49;4.78;;;2.70;;
47367;SDS011;34646;47.964;7.982;2022-11-15T09:24:09;4.85;;;3.17;;
47367;SDS011;34646;47.964;7.982;2022-11-15T09:30:28;5.00;;;3.00;;
47367;SDS011;34646;47.964;7.982;2022-11-15T09:36:47;7.55;;;3.15;;
47367;SDS011;34646;47.964;7.982;2022-11-15T09:49:37;3.27;;;2.57;;
47367;SDS011;34646;47.964;7.982;2022-11-15T09:55:55;3.35;;;2.85;;
47367;SDS011;34646;47.964;7.982;2022-11-15T10:02:17;4.68;;;2.53;;
47367;SDS011;34646;47.964;7.982;2022-11-15T10:08:47;3.92;;;2.70;;
47367;SDS011;34646;47.964;7.982;2022-11-15T10:14:50;4.18;;;2.58;;
47367;SDS011;34646;47.964;7.982;2022-11-15T10:21:02;4.05;;;2.70;;
47367;SDS011;34646;47.964;7.982;2022-11-15T10:27:20;5.75;;;2.60;;
47367;SDS011;34646;47.964;7.982;2022-11-15T10:33:26;3.17;;;2.43;;
47367;SDS011;34646;47.964;7.982;2022-11-15T10:39:29;3.92;;;2.60;;
47367;SDS011;34646;47.964;7.982;2022-11-15T10:45:31;5.43;;;2.63;;
47367;SDS011;34646;47.964;7.982;2022-11-15T10:51:33;4.00;;;2.53;;
47367;SDS011;34646;47.964;7.982;2022-11-15T10:57:54;3.35;;;2.70;;
47367;SDS011;34646;47.964;7.982;2022-11-15T11:16:19;3.75;;;2.53;;
47367;SDS011;34646;47.964;7.982;2022-11-15T11:22:55;4.00;;;2.53;;
47367;SDS011;34646;47.964;7.982;2022-11-15T11:29:26;3.25;;;2.10;;
47367;SDS011;34646;47.964;7.982;2022-11-15T11:42:47;3.53;;;2.38;;
47367;SDS011;34646;47.964;7.982;2022-11-15T12:00:46;3.00;;;1.88;;
47367;SDS011;34646;47.964;7.982;2022-11-15T12:07:23;2.95;;;2.17;;
47367;SDS011;34646;47.964;7.982;2022-11-15T12:13:28;2.38;;;1.85;;
47367;SDS011;34646;47.964;7.982;2022-11-15T12:19:34;3.05;;;1.98;;
47367;SDS011;34646;47.964;7.982;2022-11-15T12:25:40;2.23;;;1.77;;
47367;SDS011;34646;47.964;7.982;2022-11-15T12:31:55;3.38;;;2.05;;
47367;SDS011;34646;47.964;7.982;2022-11-15T12:38:00;2.97;;;1.92;;
47367;SDS011;34646;47.964;7.982;2022-11-15T12:44:01;2.78;;;2.03;;
47367;SDS011;34646;47.964;7.982;2022-11-15T12:50:03;3.88;;;1.90;;
47367;SDS011;34646;47.964;7.982;2022-11-15T13:02:17;3.03;;;1.50;;
47367;SDS011;34646;47.964;7.982;2022-11-15T13:08:43;2.05;;;1.38;;
47367;SDS011;34646;47.964;7.982;2022-11-15T13:14:57;5.03;;;1.38;;
47367;SDS011;34646;47.964;7.982;2022-11-15T13:27:00;9.35;;;2.05;;
47367;SDS011;34646;47.964;7.982;2022-11-15T13:33:06;13.03;;;1.93;;
47367;SDS011;34646;47.964;7.982;2022-11-15T13:39:14;16.33;;;2.95;;
47367;SDS011;34646;47.964;7.982;2022-11-15T13:45:28;8.45;;;1.52;;
47367;SDS011;34646;47.964;7.982;2022-11-15T13:51:46;8.77;;;1.52;;
47367;SDS011;34646;47.964;7.982;2022-11-15T13:57:54;9.20;;;1.73;;
47367;SDS011;34646;47.964;7.982;2022-11-15T14:03:58;6.53;;;1.58;;
47367;SDS011;34646;47.964;7.982;2022-11-15T14:10:16;10.75;;;2.10;;
47367;SDS011;34646;47.964;7.982;2022-11-15T14:16:38;12.25;;;1.92;;
47367;SDS011;34646;47.964;7.982;2022-11-15T14:22:50;23.33;;;3.03;;
47367;SDS011;34646;47.964;7.982;2022-11-15T14:28:54;10.75;;;1.98;;
47367;SDS011;34646;47.964;7.982;2022-11-15T14:40:57;11.73;;;1.33;;
47367;SDS011;34646;47.964;7.982;2022-11-15T14:46:58;6.03;;;1.43;;
47367;SDS011;34646;47.964;7.982;2022-11-15T14:52:59;7.13;;;1.70;;
47367;SDS011;34646;47.964;7.982;2022-11-15T14:59:00;10.13;;;1.73;;
47367;SDS011;34646;47.964;7.982;2022-11-15T15:05:00;10.97;;;1.63;;
47367;SDS011;34646;47.964;7.982;2022-11-15T15:11:03;10.02;;;1.95;;
47367;SDS011;34646;47.964;7.982;2022-11-15T15:17:10;13.63;;;2.03;;
47367;SDS011;34646;47.964;7.982;2022-11-15T15:23:15;16.53;;;1.80;;
47367;SDS011;34646;47.964;7.982;2022-11-15T15:29:17;17.40;;;1.70;;
47367;SDS011;34646;47.964;7.982;2022-11-15T15:35:18;10.30;;;1.53;;
47367;SDS011;34646;47.964;7.982;2022-11-15T15:41:19;13.50;;;2.42;;
47367;SDS011;34646;47.964;7.982;2022-11-15T15:53:22;10.98;;;1.65;;
47367;SDS011;34646;47.964;7.982;2022-11-15T15:59:22;7.80;;;1.67;;
47367;SDS011;34646;47.964;7.982;2022-11-15T16:05:23;11.90;;;3.23;;
47367;SDS011;34646;47.964;7.982;2022-11-15T16:11:24;14.40;;;3.20;;
47367;SDS011;34646;47.964;7.982;2022-11-15T16:17:26;11.40;;;3.27;;
47367;SDS011;34646;47.964;7.982;2022-11-15T16:23:34;14.93;;;2.70;;
47367;SDS011;34646;47.964;7.982;2022-11-15T16:29:34;12.60;;;3.20;;
47367;SDS011;34646;47.964;7.982;2022-11-15T16:35:35;12.10;;;3.13;;
47367;SDS011;34646;47.964;7.982;2022-11-15T16:41:36;8.87;;;2.97;;
47367;SDS011;34646;47.964;7.982;2022-11-15T16:47:37;11.83;;;3.37;;
47367;SDS011;34646;47.964;7.982;2022-11-15T16:53:37;12.10;;;3.23;;
47367;SDS011;34646;47.964;7.982;2022-11-15T16:59:40;21.83;;;2.55;;
47367;SDS011;34646;47.964;7.982;2022-11-15T17:05:40;10.50;;;2.63;;
47367;SDS011;34646;47.964;7.982;2022-11-15T17:11:41;8.53;;;2.27;;
47367;SDS011;34646;47.964;7.982;2022-11-15T17:17:42;12.40;;;3.08;;
47367;SDS011;34646;47.964;7.982;2022-11-15T17:23:44;7.57;;;2.63;;
47367;SDS011;34646;47.964;7.982;2022-11-15T17:29:45;8.82;;;2.10;;
47367;SDS011;34646;47.964;7.982;2022-11-15T17:35:46;14.00;;;3.33;;
47367;SDS011;34646;47.964;7.982;2022-11-15T17:41:53;11.35;;;2.00;;
47367;SDS011;34646;47.964;7.982;2022-11-15T17:47:54;11.33;;;2.70;;
47367;SDS011;34646;47.964;7.982;2022-11-15T17:53:55;5.27;;;2.00;;
47367;SDS011;34646;47.964;7.982;2022-11-15T17:59:55;18.40;;;3.30;;
47367;SDS011;34646;47.964;7.982;2022-11-15T18:05:56;9.70;;;2.43;;
47367;SDS011;34646;47.964;7.982;2022-11-15T18:11:57;8.47;;;2.50;;
47367;SDS011;34646;47.964;7.982;2022-11-15T18:17:58;13.30;;;3.30;;
47367;SDS011;34646;47.964;7.982;2022-11-15T18:23:59;12.73;;;3.03;;
47367;SDS011;34646;47.964;7.982;2022-11-15T18:30:01;9.70;;;2.33;;
47367;SDS011;34646;47.964;7.982;2022-11-15T18:36:05;9.90;;;2.63;;
47367;SDS011;34646;47.964;7.982;2022-11-15T18:42:08;9.38;;;2.60;;
47367;SDS011;34646;47.964;7.982;2022-11-15T18:48:08;9.00;;;2.20;;
47367;SDS011;34646;47.964;7.982;2022-11-15T18:54:10;10.23;;;2.37;;
47367;SDS011;34646;47.964;7.982;2022-11-15T19:00:12;8.07;;;2.83;;
47367;SDS011;34646;47.964;7.982;2022-11-15T19:06:14;6.88;;;2.15;;
47367;SDS011;34646;47.964;7.982;2022-11-15T19:12:16;6.15;;;2.13;;
47367;SDS011;34646;47.964;7.982;2022-11-15T19:18:16;6.67;;;2.50;;
47367;SDS011;34646;47.964;7.982;2022-11-15T19:24:17;4.13;;;1.80;;
47367;SDS011;34646;47.964;7.982;2022-11-15T19:30:18;6.77;;;2.17;;
47367;SDS011;34646;47.964;7.982;2022-11-15T19:36:20;6.67;;;1.80;;
47367;SDS011;34646;47.964;7.982;2022-11-15T19:42:22;5.70;;;1.85;;
47367;SDS011;34646;47.964;7.982;2022-11-15T19:48:23;3.73;;;2.00;;
47367;SDS011;34646;47.964;7.982;2022-11-15T19:54:24;5.22;;;2.22;;
47367;SDS011;34646;47.964;7.982;2022-11-15T20:00:25;3.93;;;1.77;;
47367;SDS011;34646;47.964;7.982;2022-11-15T20:06:33;6.17;;;1.87;;
47367;SDS011;34646;47.964;7.982;2022-11-15T20:12:35;4.90;;;2.10;;
47367;SDS011;34646;47.964;7.982;2022-11-15T20:18:36;4.87;;;1.60;;
47367;SDS011;34646;47.964;7.982;2022-11-15T20:24:37;6.93;;;1.67;;
47367;SDS011;34646;47.964;7.982;2022-11-15T20:30:37;2.87;;;1.70;;
47367;SDS011;34646;47.964;7.982;2022-11-15T20:36:38;4.10;;;1.77;;
47367;SDS011;34646;47.964;7.982;2022-11-15T20:42:39;5.63;;;1.97;;
47367;SDS011;34646;47.964;7.982;2022-11-15T20:48:40;4.75;;;2.15;;
47367;SDS011;34646;47.964;7.982;2022-11-15T20:54:40;4.03;;;1.93;;
47367;SDS011;34646;47.964;7.982;2022-11-15T21:00:41;2.63;;;1.83;;
47367;SDS011;34646;47.964;7.982;2022-11-15T21:06:43;6.53;;;2.35;;
47367;SDS011;34646;47.964;7.982;2022-11-15T21:12:44;4.65;;;1.63;;
47367;SDS011;34646;47.964;7.982;2022-11-15T21:18:46;3.40;;;1.58;;
47367;SDS011;34646;47.964;7.982;2022-11-15T21:24:47;4.17;;;1.40;;
47367;SDS011;34646;47.964;7.982;2022-11-15T21:30:52;2.23;;;1.17;;
47367;SDS011;34646;47.964;7.982;2022-11-15T21:36:57;3.72;;;1.80;;
47367;SDS011;34646;47.964;7.982;2022-11-15T21:42:58;2.43;;;1.27;;
47367;SDS011;34646;47.964;7.982;2022-11-15T21:48:59;4.63;;;1.55;;
47367;SDS011;34646;47.964;7.982;2022-11-15T21:55:00;3.90;;;1.37;;
47367;SDS011;34646;47.964;7.982;2022-11-15T22:01:00;2.87;;;1.50;;
47367;SDS011;34646;47.964;7.982;2022-11-15T22:07:20;2.67;;;1.67;;
47367;SDS011;34646;47.964;7.982;2022-11-15T22:13:20;2.53;;;1.30;;
47367;SDS011;34646;47.964;7.982;2022-11-15T22:19:25;3.65;;;1.60;;
47367;SDS011;34646;47.964;7.982;2022-11-15T22:25:26;2.40;;;1.57;;
47367;SDS011;34646;47.964;7.982;2022-11-15T22:31:26;4.43;;;1.60;;
47367;SDS011;34646;47.964;7.982;2022-11-15T22:37:27;2.57;;;1.57;;
47367;SDS011;34646;47.964;7.982;2022-11-15T22:43:28;1.93;;;1.20;;
47367;SDS011;34646;47.964;7.982;2022-11-15T22:49:29;3.17;;;1.63;;
47367;SDS011;34646;47.964;7.982;2022-11-15T22:55:29;3.07;;;1.43;;
47367;SDS011;34646;47.964;7.982;2022-11-15T23:01:30;3.07;;;1.60;;
47367;SDS011;34646;47.964;7.982;2022-11-15T23:07:31;3.33;;;1.40;;
47367;SDS011;34646;47.964;7.982;2022-11-15T23:13:33;3.95;;;1.80;;
47367;SDS011;34646;47.964;7.982;2022-11-15T23:19:34;2.33;;;1.07;;
47367;SDS011;34646;47.964;7.982;2022-11-15T23:25:34;1.80;;;1.27;;
47367;SDS011;34646;47.964;7.982;2022-11-15T23:31:35;2.53;;;1.20;;
47367;SDS011;34646;47.964;7.982;2022-11-15T23:37:54;4.03;;;1.88;;
47367;SDS011;34646;47.964;7.982;2022-11-15T23:43:55;2.83;;;1.30;;
47367;SDS011;34646;47.964;7.982;2022-11-15T23:49:56;2.80;;;1.53;;
47367;SDS011;34646;47.964;7.982;2022-11-15T23:56:00;2.73;;;1.47;;
